Terminal Aerodrome Forecast
Issued by NWS

Home | Current Version | Previous Version | Text Only | Print | Product List | Glossary On
Versions: 1 2 3 4 5 6 7 8 9 10 11 12 13 14 15 16 17 18 19 20 21 22 23 24 25 26 27 28 29 30 31 32 33 34 35 36 37 38 39 40 41 42 43 44 45 46 47 48 49 50
000
FTUS46 KEKA 301456 AAA
TAFACV
TAF AMD
KACV 301456Z 3015/0112 VRB03KT 3SM BR FEW001 SCT015
     FM301700 34007KT P6SM SKC
     FM301800 34012G20KT P6SM SKC
     FM302000 34015G25KT P6SM SKC
     FM010500 35008KT P6SM SKC=

USA.gov is the U.S. government's official web portal to all federal, state and local government web resources and services.